Time;durP1;ratioP1;P1;durP2;ratioP2;P2;SDS_P1;SDS_P2;PMS_P1;PMS_P2;Temp;Humidity;BMP_temperature;BMP_pressure;BME280_temperature;BME280_humidity;BME280_pressure;Samples;Min_cycle;Max_cycle;Signal;HPM_P1;HPM_P2
2021/07/23 00:01:02;;;;;;;35.10;32.80;;;20.40;73.90;;;;;;5039290;28;20554;-69
2021/07/23 00:03:30;;;;;;;35.90;33.40;;;20.40;73.90;;;;;;5053018;28;20458;-69
2021/07/23 00:05:58;;;;;;;35.80;33.17;;;20.30;74.20;;;;;;5043461;28;20490;-69
2021/07/23 00:08:25;;;;;;;36.13;33.63;;;20.30;74.20;;;;;;5047039;28;20473;-69
2021/07/23 00:10:52;;;;;;;36.50;33.83;;;20.20;74.50;;;;;;5039121;28;20463;-69
2021/07/23 00:13:19;;;;;;;37.00;34.30;;;20.10;74.90;;;;;;5043486;28;20502;-69
2021/07/23 00:15:46;;;;;;;37.97;35.20;;;20.00;75.20;;;;;;5048046;28;20470;-69
2021/07/23 00:18:13;;;;;;;36.37;33.83;;;20.00;75.20;;;;;;5051481;28;20464;-69
2021/07/23 00:20:41;;;;;;;36.00;33.40;;;20.00;75.40;;;;;;5039897;28;20459;-69
2021/07/23 00:23:08;;;;;;;36.50;33.93;;;20.00;75.60;;;;;;5041440;28;20463;-69
2021/07/23 00:25:36;;;;;;;35.80;33.40;;;19.90;75.70;;;;;;5048750;28;20504;-69
2021/07/23 00:28:03;;;;;;;35.80;33.30;;;19.90;75.80;;;;;;5044872;28;20460;-69
2021/07/23 00:30:29;;;;;;;37.23;34.60;;;19.80;76.30;;;;;;5039345;28;20462;-69
2021/07/23 00:32:56;;;;;;;36.77;34.10;;;19.80;76.10;;;;;;5045156;28;20458;-69
2021/07/23 00:35:24;;;;;;;35.93;33.43;;;19.80;76.00;;;;;;5039566;28;20500;-69
2021/07/23 00:37:53;;;;;;;36.63;33.77;;;19.70;76.20;;;;;;5045526;28;20849;-69
2021/07/23 00:40:20;;;;;;;36.13;33.60;;;19.70;76.50;;;;;;5049088;28;20463;-69
2021/07/23 00:42:46;;;;;;;36.50;33.83;;;19.60;76.90;;;;;;5046560;28;20465;-69
2021/07/23 00:45:14;;;;;;;37.53;34.80;;;19.50;77.10;;;;;;5041970;28;20462;-69
2021/07/23 00:47:44;;;;;;;36.73;33.70;;;19.50;77.10;;;;;;5049162;28;20451;-69
2021/07/23 00:50:12;;;;;;;36.67;33.97;;;19.50;77.00;;;;;;5040115;28;20460;-70
2021/07/23 00:52:39;;;;;;;36.73;33.90;;;19.50;77.10;;;;;;5043910;28;20455;-70
2021/07/23 00:55:09;;;;;;;35.70;33.10;;;19.50;77.20;;;;;;5043236;28;20474;-69
2021/07/23 00:57:37;;;;;;;36.20;33.70;;;19.40;77.50;;;;;;5037382;28;20456;-69
2021/07/23 01:00:05;;;;;;;35.60;33.00;;;19.40;77.70;;;;;;5040681;28;20946;-69
2021/07/23 01:02:32;;;;;;;35.93;33.30;;;19.40;77.50;;;;;;5036780;28;21196;-69
2021/07/23 01:04:59;;;;;;;37.40;33.87;;;19.40;77.50;;;;;;5041272;28;20459;-69
2021/07/23 01:07:26;;;;;;;36.20;33.77;;;19.30;77.70;;;;;;5046390;28;20467;-69
2021/07/23 01:09:53;;;;;;;35.70;33.30;;;19.30;77.90;;;;;;5043925;28;20460;-69
2021/07/23 01:12:22;;;;;;;36.73;33.80;;;19.20;78.10;;;;;;5041963;28;20994;-69
2021/07/23 01:14:50;;;;;;;36.27;33.60;;;19.20;78.30;;;;;;5048017;28;20493;-69
2021/07/23 01:17:17;;;;;;;34.97;32.53;;;19.10;78.50;;;;;;5046976;28;20483;-69
2021/07/23 01:19:50;;;;;;;36.77;34.17;;;18.90;79.00;;;;;;5044438;28;20470;-69
2021/07/23 01:22:21;;;;;;;35.90;33.30;;;18.80;79.40;;;;;;5047887;28;20475;-69
2021/07/23 01:24:50;;;;;;;35.93;33.43;;;18.80;79.50;;;;;;5045320;28;20450;-69
2021/07/23 01:27:17;;;;;;;34.93;32.53;;;18.80;79.60;;;;;;5037931;28;21139;-69
2021/07/23 01:29:44;;;;;;;35.77;33.37;;;18.80;79.70;;;;;;5042513;28;21264;-70
2021/07/23 01:32:11;;;;;;;36.20;33.50;;;18.80;79.80;;;;;;5042202;28;20825;-70
2021/07/23 01:34:39;;;;;;;34.90;32.40;;;18.80;79.50;;;;;;5042816;28;20931;-70
2021/07/23 01:37:06;;;;;;;34.10;31.80;;;18.80;79.70;;;;;;5042623;28;21458;-70
2021/07/23 01:39:34;;;;;;;35.20;32.63;;;18.70;79.70;;;;;;5042548;28;20562;-70
2021/07/23 01:42:02;;;;;;;36.37;33.83;;;18.70;79.80;;;;;;5045592;28;20458;-70
2021/07/23 01:44:29;;;;;;;34.37;32.00;;;18.80;79.80;;;;;;5051299;28;20467;-70
2021/07/23 01:46:56;;;;;;;34.77;32.17;;;18.70;79.70;;;;;;5039411;28;20474;-70
2021/07/23 01:49:22;;;;;;;36.40;33.60;;;18.70;79.80;;;;;;5045139;28;20442;-70
2021/07/23 01:51:49;;;;;;;35.47;32.87;;;18.60;80.20;;;;;;5045485;28;20455;-70
2021/07/23 01:54:16;;;;;;;35.50;33.00;;;18.60;80.10;;;;;;5054364;28;20469;-70
2021/07/23 01:56:45;;;;;;;35.27;32.87;;;18.60;80.10;;;;;;5038305;28;20476;-70
2021/07/23 01:59:13;;;;;;;34.53;31.83;;;18.50;80.20;;;;;;5039923;28;20473;-70
2021/07/23 02:01:40;;;;;;;34.20;31.80;;;18.50;80.40;;;;;;5043884;28;20482;-70
2021/07/23 02:04:07;;;;;;;34.37;31.87;;;18.40;80.60;;;;;;5048414;28;20802;-70
2021/07/23 02:06:34;;;;;;;35.17;32.77;;;18.50;80.40;;;;;;5047347;28;20470;-70
2021/07/23 02:09:01;;;;;;;35.87;33.23;;;18.50;80.30;;;;;;5044973;28;20463;-70
2021/07/23 02:11:30;;;;;;;33.50;31.10;;;18.50;80.40;;;;;;5047733;28;20542;-70
2021/07/23 02:13:57;;;;;;;36.60;34.00;;;18.50;80.30;;;;;;5041222;28;20447;-70
2021/07/23 02:16:25;;;;;;;35.00;32.37;;;18.50;80.20;;;;;;5040589;28;20475;-69
2021/07/23 02:18:52;;;;;;;35.63;33.13;;;18.50;80.40;;;;;;5046137;28;20462;-70
2021/07/23 02:21:19;;;;;;;34.67;32.13;;;18.40;80.50;;;;;;5043591;28;20490;-70
2021/07/23 02:23:46;;;;;;;34.90;32.40;;;18.40;80.50;;;;;;5043136;28;20459;-70
2021/07/23 02:26:17;;;;;;;35.17;32.47;;;18.40;80.70;;;;;;5048146;28;20578;-70
2021/07/23 02:28:44;;;;;;;37.47;34.63;;;18.30;80.80;;;;;;5044448;28;20455;-70
2021/07/23 02:31:11;;;;;;;34.87;32.27;;;18.30;80.90;;;;;;5050514;28;20937;-70
2021/07/23 02:33:39;;;;;;;38.20;34.80;;;18.30;80.90;;;;;;5045168;28;20558;-70
2021/07/23 02:36:06;;;;;;;38.07;35.13;;;18.30;81.00;;;;;;5044631;28;20470;-70
2021/07/23 02:38:33;;;;;;;34.87;32.43;;;18.30;81.00;;;;;;5046430;28;20461;-70
2021/07/23 02:41:00;;;;;;;35.30;32.77;;;18.30;80.90;;;;;;5049960;28;20479;-70
2021/07/23 02:43:27;;;;;;;35.30;32.77;;;18.40;80.80;;;;;;5043432;28;20451;-71
2021/07/23 02:45:55;;;;;;;35.03;32.60;;;18.30;80.80;;;;;;5049057;28;20485;-70
2021/07/23 02:48:22;;;;;;;35.60;33.20;;;18.30;80.80;;;;;;5045965;28;20455;-70
2021/07/23 02:50:50;;;;;;;36.60;34.13;;;18.30;80.70;;;;;;5038715;28;20473;-70
2021/07/23 02:53:17;;;;;;;34.90;32.50;;;18.30;80.90;;;;;;5049689;28;20455;-70
2021/07/23 02:55:44;;;;;;;37.57;34.87;;;18.20;81.30;;;;;;5041922;28;20482;-70
2021/07/23 02:58:11;;;;;;;35.40;33.00;;;18.20;81.20;;;;;;5047744;28;20990;-70
2021/07/23 03:00:38;;;;;;;34.50;32.20;;;18.20;81.40;;;;;;5060968;28;20462;-69
2021/07/23 03:03:05;;;;;;;35.67;33.07;;;18.10;81.70;;;;;;5044516;28;20543;-70
2021/07/23 03:05:32;;;;;;;35.07;32.50;;;18.00;81.80;;;;;;5044102;28;20566;-70
2021/07/23 03:08:01;;;;;;;36.43;33.83;;;17.90;82.00;;;;;;5054837;28;20453;-70
2021/07/23 03:10:28;;;;;;;35.10;32.70;;;17.90;82.20;;;;;;5035353;28;20459;-70
2021/07/23 03:12:55;;;;;;;37.20;34.50;;;17.90;82.20;;;;;;5043774;28;20470;-70
2021/07/23 03:15:22;;;;;;;37.40;34.70;;;18.00;82.10;;;;;;5045002;28;20482;-70
2021/07/23 03:17:48;;;;;;;39.33;36.70;;;17.90;82.00;;;;;;5048932;28;20458;-69
2021/07/23 03:20:16;;;;;;;37.00;34.23;;;17.90;82.10;;;;;;5040162;28;20538;-69
2021/07/23 03:22:43;;;;;;;39.13;36.30;;;17.80;82.30;;;;;;5045761;28;20454;-69
2021/07/23 03:25:12;;;;;;;37.37;34.10;;;17.80;82.30;;;;;;5047751;28;20549;-69
2021/07/23 03:27:39;;;;;;;36.40;33.70;;;17.80;82.70;;;;;;5042911;28;20543;-69
2021/07/23 03:30:08;;;;;;;37.40;34.90;;;17.80;82.60;;;;;;5047667;28;20839;-69
2021/07/23 03:32:35;;;;;;;37.57;35.17;;;17.80;82.50;;;;;;5051143;28;20458;-69
2021/07/23 03:35:01;;;;;;;37.30;34.80;;;17.70;82.80;;;;;;5044313;28;20493;-70
2021/07/23 03:37:28;;;;;;;34.93;32.60;;;17.70;83.10;;;;;;5050116;28;20573;-69
2021/07/23 03:39:55;;;;;;;37.97;35.13;;;17.60;83.50;;;;;;5047184;28;20795;-70
2021/07/23 03:42:23;;;;;;;39.03;36.13;;;17.60;83.40;;;;;;5050902;28;20471;-70
2021/07/23 03:44:50;;;;;;;36.77;34.27;;;17.70;83.30;;;;;;5043423;28;20456;-70
2021/07/23 03:47:18;;;;;;;39.80;37.20;;;17.70;83.10;;;;;;5048548;28;20570;-70
2021/07/23 03:49:45;;;;;;;34.40;32.00;;;17.70;83.30;;;;;;5046787;28;20460;-70
2021/07/23 03:52:12;;;;;;;36.57;33.77;;;17.60;83.30;;;;;;5044928;28;20457;-70
2021/07/23 03:54:39;;;;;;;35.37;32.83;;;17.60;83.30;;;;;;5040358;28;20820;-70
2021/07/23 03:57:06;;;;;;;37.47;34.73;;;17.70;83.20;;;;;;5043764;28;20487;-70
2021/07/23 03:59:35;;;;;;;34.80;32.10;;;17.70;83.10;;;;;;5041024;28;20477;-70
2021/07/23 04:02:02;;;;;;;35.87;33.27;;;17.70;83.00;;;;;;5042298;28;20581;-70
2021/07/23 04:04:30;;;;;;;35.90;33.47;;;17.70;83.30;;;;;;5049386;28;20465;-69
2021/07/23 04:06:58;;;;;;;36.43;33.83;;;17.70;83.20;;;;;;5045369;28;20820;-70
2021/07/23 04:09:26;;;;;;;37.17;34.57;;;17.70;82.90;;;;;;5049625;28;20466;-70
2021/07/23 04:11:53;;;;;;;36.13;33.70;;;17.70;82.70;;;;;;5040521;28;20547;-70
2021/07/23 04:14:20;;;;;;;39.00;36.13;;;17.70;82.80;;;;;;5055257;28;20463;-70
2021/07/23 04:16:49;;;;;;;37.47;34.80;;;17.80;82.80;;;;;;5047251;28;20853;-69
2021/07/23 04:19:16;;;;;;;35.43;33.13;;;17.70;82.70;;;;;;5047446;28;20459;-69
2021/07/23 04:21:43;;;;;;;38.40;35.80;;;17.70;82.90;;;;;;5047831;28;20494;-69
2021/07/23 04:24:11;;;;;;;37.73;35.03;;;17.80;82.70;;;;;;5045582;28;20469;-68
2021/07/23 04:26:38;;;;;;;34.50;32.10;;;17.80;82.60;;;;;;5043736;28;20486;-70
2021/07/23 04:29:05;;;;;;;36.40;33.80;;;17.90;82.40;;;;;;5046105;28;20467;-71
2021/07/23 04:31:32;;;;;;;37.13;34.53;;;17.90;82.30;;;;;;5046686;28;20578;-70
2021/07/23 04:34:01;;;;;;;36.20;33.60;;;18.00;82.10;;;;;;5046333;28;20465;-71
2021/07/23 04:36:28;;;;;;;35.50;33.13;;;18.20;81.60;;;;;;5037460;28;20486;-69
2021/07/23 04:38:55;;;;;;;34.97;32.63;;;18.20;81.70;;;;;;5047406;28;20463;-70
2021/07/23 04:41:22;;;;;;;38.53;36.03;;;18.20;81.50;;;;;;5041540;28;20450;-70
2021/07/23 04:43:49;;;;;;;38.07;35.33;;;18.30;81.40;;;;;;5047474;28;20461;-71
2021/07/23 04:46:16;;;;;;;37.30;34.57;;;18.30;81.30;;;;;;5046742;28;21192;-70
2021/07/23 04:48:43;;;;;;;39.70;36.90;;;18.50;81.00;;;;;;5046519;28;21131;-70
2021/07/23 04:51:11;;;;;;;35.53;33.17;;;18.70;80.30;;;;;;5048328;28;20447;-70
2021/07/23 04:53:38;;;;;;;35.83;33.33;;;18.70;79.70;;;;;;5045804;28;21117;-69
2021/07/23 04:56:06;;;;;;;36.93;34.27;;;18.60;79.90;;;;;;5047514;28;20616;-69
2021/07/23 04:58:34;;;;;;;35.70;32.50;;;18.50;80.20;;;;;;5049670;28;20524;-70
2021/07/23 05:01:01;;;;;;;36.53;33.70;;;18.30;80.50;;;;;;5051685;28;20590;-70
2021/07/23 05:03:35;;;;;;;36.63;34.27;;;18.30;81.00;;;;;;5049106;28;20446;-69
2021/07/23 05:06:04;;;;;;;38.20;35.60;;;18.30;80.80;;;;;;5043794;28;20474;-74
2021/07/23 05:08:32;;;;;;;35.67;33.23;;;18.40;80.80;;;;;;5047884;28;20464;-74
2021/07/23 05:11:00;;;;;;;38.10;35.27;;;18.50;80.30;;;;;;5047181;28;20449;-74
2021/07/23 05:13:29;;;;;;;36.90;34.30;;;18.80;79.70;;;;;;5042841;28;20462;-74
2021/07/23 05:15:57;;;;;;;38.87;36.10;;;19.00;78.60;;;;;;5046805;28;20502;-74
2021/07/23 05:18:25;;;;;;;37.15;34.47;;;19.20;78.00;;;;;;5046485;28;20547;-73
2021/07/23 05:20:52;;;;;;;36.08;33.47;;;19.30;78.20;;;;;;5048199;28;20467;-74
2021/07/23 05:23:19;;;;;;;37.30;34.87;;;19.70;76.70;;;;;;5046806;28;20221;-76
2021/07/23 05:25:49;;;;;;;38.87;36.27;;;19.70;76.70;;;;;;5046367;28;20490;-73
2021/07/23 05:28:16;;;;;;;41.40;34.53;;;19.50;77.00;;;;;;5042636;28;20451;-73
2021/07/23 05:30:45;;;;;;;56.87;37.13;;;19.60;77.00;;;;;;5044450;28;20493;-73
2021/07/23 05:33:12;;;;;;;39.07;33.90;;;19.80;76.60;;;;;;5040871;28;20455;-72
2021/07/23 05:35:39;;;;;;;37.63;34.70;;;20.00;75.80;;;;;;5045917;28;20481;-72
2021/07/23 05:38:14;;;;;;;82.60;39.13;;;20.10;75.40;;;;;;5043548;28;20486;-73
2021/07/23 05:40:41;;;;;;;40.73;36.90;;;20.30;75.40;;;;;;5044414;28;21022;-74
2021/07/23 05:43:09;;;;;;;37.73;35.23;;;20.30;75.00;;;;;;5048785;28;20487;-75
2021/07/23 05:45:38;;;;;;;36.77;34.10;;;20.40;74.80;;;;;;5047452;28;20485;-77
2021/07/23 05:48:06;;;;;;;36.70;34.03;;;20.40;74.60;;;;;;5046056;28;20463;-78
2021/07/23 05:50:33;;;;;;;41.10;38.30;;;20.40;74.70;;;;;;5037967;28;20459;-77
2021/07/23 05:53:00;;;;;;;38.00;35.50;;;20.40;74.60;;;;;;5044801;28;20532;-79
2021/07/23 05:55:27;;;;;;;36.70;34.30;;;20.40;74.50;;;;;;5041054;28;20470;-76
2021/07/23 05:57:56;;;;;;;39.60;36.60;;;20.60;74.30;;;;;;5045743;28;20815;-77
2021/07/23 06:00:25;;;;;;;38.20;35.50;;;20.70;74.10;;;;;;5037084;28;20469;-77
2021/07/23 06:02:52;;;;;;;38.10;35.13;;;20.80;73.30;;;;;;5042571;28;20784;-77
2021/07/23 06:05:19;;;;;;;40.37;37.23;;;20.90;72.80;;;;;;5044453;28;20557;-77
2021/07/23 06:07:46;;;;;;;40.30;37.60;;;21.00;72.60;;;;;;5043467;28;20851;-77
2021/07/23 06:10:13;;;;;;;40.83;37.93;;;21.10;71.80;;;;;;5036811;28;20549;-76
2021/07/23 06:12:40;;;;;;;39.60;36.80;;;21.20;71.60;;;;;;5039350;28;20471;-79
2021/07/23 06:15:08;;;;;;;42.67;39.87;;;21.30;71.70;;;;;;5036922;28;20471;-76
2021/07/23 06:17:36;;;;;;;42.73;39.37;;;21.50;71.50;;;;;;5045943;28;20480;-75
2021/07/23 06:20:04;;;;;;;40.23;37.50;;;21.70;71.10;;;;;;5043827;28;20464;-78
2021/07/23 06:22:31;;;;;;;41.73;38.90;;;21.70;71.20;;;;;;5047393;28;20469;-78
2021/07/23 06:24:58;;;;;;;39.77;37.07;;;21.90;70.90;;;;;;5048164;28;20475;-78
2021/07/23 06:27:25;;;;;;;38.70;35.90;;;21.90;70.10;;;;;;5045490;28;20463;-78
2021/07/23 06:29:55;;;;;;;40.23;37.43;;;22.00;69.40;;;;;;5043695;28;20478;-78
2021/07/23 06:32:26;;;;;;;43.00;40.00;;;22.10;69.60;;;;;;5043595;28;20491;-80
2021/07/23 06:34:55;;;;;;;40.03;37.10;;;22.20;69.60;;;;;;5046009;28;20463;-79
2021/07/23 06:37:23;;;;;;;42.97;39.97;;;22.40;68.40;;;;;;5040269;28;20481;-78
2021/07/23 06:39:51;;;;;;;41.13;37.93;;;22.30;68.80;;;;;;5049401;28;20467;-79
2021/07/23 06:42:20;;;;;;;41.67;38.30;;;22.30;68.60;;;;;;5042135;28;20467;-81
2021/07/23 06:44:47;;;;;;;39.60;36.90;;;22.30;68.80;;;;;;5048518;28;20495;-79
2021/07/23 06:47:14;;;;;;;43.17;40.17;;;22.40;69.30;;;;;;5038883;28;20563;-78
2021/07/23 06:49:41;;;;;;;46.00;42.97;;;22.50;68.70;;;;;;5042234;28;20846;-73
2021/07/23 06:52:09;;;;;;;40.63;37.70;;;22.60;68.30;;;;;;5048165;28;20451;-77
2021/07/23 06:54:36;;;;;;;41.87;38.27;;;22.70;67.90;;;;;;5045607;28;20463;-74
2021/07/23 06:57:04;;;;;;;42.30;39.17;;;22.70;67.60;;;;;;5040379;28;20483;-76
2021/07/23 06:59:32;;;;;;;41.77;38.77;;;22.60;68.10;;;;;;5046525;28;20970;-75
2021/07/23 07:02:00;;;;;;;44.60;41.13;;;22.60;68.10;;;;;;5044856;28;20460;-75
2021/07/23 07:04:27;;;;;;;41.33;37.77;;;22.70;67.80;;;;;;5046621;28;20454;-75
2021/07/23 07:06:55;;;;;;;42.90;39.57;;;22.70;67.80;;;;;;5044596;28;20474;-75
2021/07/23 07:09:24;;;;;;;39.40;36.60;;;22.80;67.30;;;;;;5043309;28;20534;-75
2021/07/23 07:11:51;;;;;;;44.27;40.87;;;22.80;67.30;;;;;;5036099;28;21019;-79
2021/07/23 07:14:21;;;;;;;44.53;41.37;;;22.80;67.60;;;;;;5046783;28;20459;-75
2021/07/23 07:16:48;;;;;;;42.27;38.77;;;22.70;67.60;;;;;;5047999;28;20475;-75
2021/07/23 07:19:14;;;;;;;41.80;38.80;;;22.70;68.00;;;;;;5046334;28;20466;-82
2021/07/23 07:21:48;;;;;;;40.80;37.60;;;22.70;68.10;;;;;;5050190;28;20457;-77
2021/07/23 07:24:15;;;;;;;42.33;39.13;;;22.70;67.90;;;;;;5048813;28;20459;-76
2021/07/23 07:26:43;;;;;;;42.13;38.97;;;22.70;68.70;;;;;;5047347;28;21003;-76
2021/07/23 07:29:10;;;;;;;42.70;39.50;;;22.80;68.20;;;;;;5046393;28;20454;-77
2021/07/23 07:31:38;;;;;;;44.47;41.27;;;22.50;68.90;;;;;;5051116;28;20546;-77
2021/07/23 07:34:05;;;;;;;44.13;40.63;;;22.30;69.70;;;;;;5043127;28;21020;-78
2021/07/23 07:36:32;;;;;;;45.40;41.80;;;22.20;70.30;;;;;;5047638;28;20475;-74
2021/07/23 07:39:00;;;;;;;42.43;39.43;;;22.40;70.20;;;;;;5052824;28;20455;-76
2021/07/23 07:41:27;;;;;;;43.90;40.70;;;22.60;69.60;;;;;;5044988;28;20851;-75
2021/07/23 07:43:56;;;;;;;43.53;40.20;;;22.70;69.30;;;;;;5049284;28;20451;-75
2021/07/23 07:46:24;;;;;;;44.47;41.07;;;22.80;68.70;;;;;;5048106;28;20597;-75
2021/07/23 07:48:51;;;;;;;44.13;40.90;;;23.00;68.50;;;;;;5043378;28;20454;-75
2021/07/23 07:51:18;;;;;;;43.40;39.83;;;23.10;67.80;;;;;;5042319;28;20529;-73
2021/07/23 07:53:45;;;;;;;45.37;41.77;;;23.30;67.60;;;;;;5042987;28;20481;-75
2021/07/23 07:56:13;;;;;;;46.27;42.70;;;23.40;67.60;;;;;;5042060;28;20478;-76
2021/07/23 07:58:41;;;;;;;44.77;41.50;;;23.60;66.80;;;;;;5038925;28;20496;-76
2021/07/23 08:01:10;;;;;;;45.90;42.00;;;23.60;66.80;;;;;;5051770;28;20506;-76
2021/07/23 08:03:37;;;;;;;44.57;41.40;;;23.60;67.00;;;;;;5046292;28;20463;-76
2021/07/23 08:06:06;;;;;;;46.43;42.70;;;23.70;66.30;;;;;;5048223;28;20557;-77
2021/07/23 08:08:33;;;;;;;43.50;40.00;;;23.70;66.80;;;;;;5045745;28;20941;-75
2021/07/23 08:11:00;;;;;;;45.33;41.73;;;23.70;66.60;;;;;;5053808;28;20961;-76
2021/07/23 08:13:28;;;;;;;45.10;41.87;;;23.70;66.90;;;;;;5046680;28;20459;-76
2021/07/23 08:15:56;;;;;;;45.80;42.53;;;23.80;66.90;;;;;;5045551;28;20516;-76
2021/07/23 08:18:25;;;;;;;46.13;42.40;;;23.90;66.50;;;;;;5053097;28;20541;-75
2021/07/23 08:20:52;;;;;;;48.80;44.10;;;23.90;66.40;;;;;;5053115;28;20469;-76
2021/07/23 08:23:20;;;;;;;46.20;42.60;;;23.70;66.60;;;;;;5041005;28;20799;-75
2021/07/23 08:25:47;;;;;;;48.20;44.20;;;23.60;67.10;;;;;;5049217;28;20553;-75
2021/07/23 08:28:15;;;;;;;47.83;44.10;;;23.70;66.40;;;;;;5038607;28;20452;-74
2021/07/23 08:30:42;;;;;;;48.03;44.13;;;23.90;66.10;;;;;;5043834;28;20462;-77
2021/07/23 08:33:09;;;;;;;46.47;42.87;;;24.00;65.70;;;;;;5045209;28;20542;-76
2021/07/23 08:35:39;;;;;;;46.70;42.90;;;24.00;64.90;;;;;;5043412;28;20507;-76
2021/07/23 08:38:06;;;;;;;47.03;43.10;;;23.90;65.10;;;;;;5051110;28;21256;-76
2021/07/23 08:40:33;;;;;;;44.97;41.47;;;23.90;65.40;;;;;;5046979;28;20874;-73
2021/07/23 08:43:02;;;;;;;45.50;41.90;;;24.00;65.40;;;;;;5040092;28;20466;-77
2021/07/23 08:45:29;;;;;;;45.57;42.07;;;24.10;64.50;;;;;;5047696;28;20486;-75
2021/07/23 08:48:11;;;;;;;44.53;40.90;;;24.00;63.90;;;;;;5045033;28;20451;-75
2021/07/23 08:50:40;;;;;;;44.03;40.67;;;24.10;63.60;;;;;;5039003;28;20538;-75
2021/07/23 08:53:16;;;;;;;46.20;42.67;;;24.30;63.00;;;;;;5045614;28;20451;-76
2021/07/23 08:55:43;;;;;;;46.17;42.50;;;24.40;62.50;;;;;;5044848;28;20569;-74
2021/07/23 08:58:10;;;;;;;43.77;40.57;;;24.30;62.60;;;;;;5046418;28;20471;-75
2021/07/23 09:00:38;;;;;;;47.70;44.17;;;24.50;62.00;;;;;;5045936;28;20490;-75
2021/07/23 09:03:06;;;;;;;45.73;42.30;;;24.50;62.30;;;;;;5042185;28;20492;-74
2021/07/23 09:05:34;;;;;;;47.07;43.47;;;24.60;62.10;;;;;;5032404;28;20472;-74
2021/07/23 09:08:11;;;;;;;44.40;41.30;;;24.60;61.90;;;;;;5046588;28;20486;-74
2021/07/23 09:10:38;;;;;;;45.50;42.30;;;24.50;61.90;;;;;;5044719;28;20557;-75
2021/07/23 09:13:05;;;;;;;45.17;41.97;;;24.70;61.90;;;;;;5051325;28;20498;-77
2021/07/23 09:15:38;;;;;;;43.70;40.60;;;24.80;62.00;;;;;;5040459;28;20987;-72
2021/07/23 09:18:06;;;;;;;46.17;42.90;;;24.70;61.80;;;;;;5045355;28;21226;-72
2021/07/23 09:20:33;;;;;;;44.90;41.40;;;24.80;61.80;;;;;;5045980;28;20806;-72
2021/07/23 09:23:02;;;;;;;44.97;41.80;;;24.90;61.00;;;;;;5052795;28;20862;-72
2021/07/23 09:25:43;;;;;;;45.47;42.17;;;24.80;61.30;;;;;;5036395;28;20483;-71
2021/07/23 09:28:21;;;;;;;45.67;42.23;;;24.70;61.80;;;;;;5047689;28;20455;-71
2021/07/23 09:30:48;;;;;;;44.00;40.80;;;24.80;62.70;;;;;;5044515;28;20459;-72
2021/07/23 09:33:23;;;;;;;45.57;42.40;;;25.00;62.70;;;;;;5044186;28;20465;-72
2021/07/23 09:35:54;;;;;;;48.03;43.97;;;25.20;61.90;;;;;;5046561;28;20528;-72
2021/07/23 09:38:23;;;;;;;43.63;40.53;;;25.40;61.80;;;;;;5041879;28;20529;-70
2021/07/23 09:40:52;;;;;;;46.40;43.20;;;25.60;60.80;;;;;;5044050;28;20463;-70
2021/07/23 09:43:30;;;;;;;47.73;44.40;;;25.70;59.50;;;;;;5044622;28;20469;-71
2021/07/23 09:46:26;;;;;;;46.03;42.83;;;25.80;59.00;;;;;;5043986;28;20494;-72
2021/07/23 09:48:54;;;;;;;47.67;44.37;;;25.80;59.70;;;;;;5042853;28;20533;-72
2021/07/23 09:51:22;;;;;;;45.90;42.50;;;25.70;59.70;;;;;;5042300;28;20946;-71
2021/07/23 09:53:50;;;;;;;42.77;39.73;;;25.50;59.80;;;;;;5045466;28;20447;-71
2021/07/23 09:56:18;;;;;;;42.47;39.47;;;25.60;59.80;;;;;;5046204;28;20558;-71
2021/07/23 09:58:49;;;;;;;43.87;40.47;;;25.80;60.00;;;;;;5045218;28;20477;-70
2021/07/23 10:01:20;;;;;;;43.97;40.70;;;25.90;59.50;;;;;;5041167;28;20538;-72
2021/07/23 10:03:50;;;;;;;46.70;43.30;;;26.10;58.50;;;;;;5043055;28;20832;-70
2021/07/23 10:06:23;;;;;;;48.00;44.37;;;26.00;58.80;;;;;;5037023;28;20582;-70
2021/07/23 10:08:56;;;;;;;43.47;40.17;;;26.00;58.60;;;;;;5035353;28;20463;-73
2021/07/23 10:11:24;;;;;;;43.50;40.53;;;26.10;58.70;;;;;;5042486;28;20542;-72
2021/07/23 10:13:56;;;;;;;45.93;42.63;;;26.00;58.70;;;;;;5047201;28;20985;-72
2021/07/23 10:16:24;;;;;;;43.60;40.70;;;26.10;58.30;;;;;;5041784;28;20505;-73
2021/07/23 10:18:51;;;;;;;46.10;43.03;;;26.00;58.10;;;;;;5037793;28;20475;-72
2021/07/23 10:21:19;;;;;;;44.40;41.40;;;26.00;58.00;;;;;;5042141;28;20869;-71
2021/07/23 10:23:47;;;;;;;46.63;43.13;;;25.90;58.00;;;;;;5047272;28;20466;-72
2021/07/23 10:26:17;;;;;;;44.53;41.57;;;25.90;58.00;;;;;;5047197;28;20515;-73
2021/07/23 10:29:01;;;;;;;46.63;43.80;;;26.00;58.00;;;;;;5041991;28;21019;-72
2021/07/23 10:31:45;;;;;;;44.80;41.70;;;26.20;57.70;;;;;;5045050;28;20501;-73
2021/07/23 10:34:12;;;;;;;46.07;42.87;;;26.30;57.60;;;;;;5041834;28;20467;-72
2021/07/23 10:36:42;;;;;;;44.77;41.77;;;26.40;57.80;;;;;;5045711;28;20564;-72
2021/07/23 10:39:17;;;;;;;46.40;43.17;;;26.60;57.40;;;;;;5040440;28;20479;-72
2021/07/23 10:42:30;;;;;;;43.30;40.17;;;26.80;56.30;;;;;;5043463;28;20486;-73
2021/07/23 10:44:58;;;;;;;45.07;41.77;;;26.90;56.60;;;;;;5044714;28;20547;-73
2021/07/23 10:47:42;;;;;;;43.33;40.60;;;27.00;56.60;;;;;;5041030;28;20463;-73
2021/07/23 10:50:14;;;;;;;44.67;41.30;;;27.10;57.10;;;;;;5043965;28;20891;-72
2021/07/23 10:52:42;;;;;;;46.13;42.93;;;27.20;57.30;;;;;;5045764;28;20505;-73
2021/07/23 10:55:19;;;;;;;44.00;40.73;;;27.30;56.70;;;;;;5049715;28;20455;-73
2021/07/23 10:58:26;;;;;;;44.17;41.00;;;27.20;55.50;;;;;;5038941;28;20531;-74
2021/07/23 11:00:58;;;;;;;46.70;43.70;;;27.20;54.90;;;;;;5049255;28;21003;-73
2021/07/23 11:04:01;;;;;;;49.10;46.00;;;27.20;54.90;;;;;;5043887;28;20459;-73
2021/07/23 11:06:34;;;;;;;46.27;43.07;;;26.90;55.10;;;;;;5046416;28;20605;-73
2021/07/23 11:09:04;;;;;;;44.37;41.47;;;26.70;55.90;;;;;;5039529;28;20533;-72
2021/07/23 11:11:32;;;;;;;44.90;41.87;;;26.60;56.00;;;;;;5045977;28;20979;-75
2021/07/23 11:14:16;;;;;;;43.87;40.97;;;26.60;56.20;;;;;;5045516;28;20462;-73
2021/07/23 11:16:46;;;;;;;44.97;42.00;;;26.70;56.40;;;;;;5048962;28;20553;-73
2021/07/23 11:19:23;;;;;;;48.17;44.87;;;26.80;55.80;;;;;;5048652;28;21019;-73
2021/07/23 11:21:51;;;;;;;44.57;41.47;;;26.70;55.90;;;;;;5048166;28;20462;-71
2021/07/23 11:24:18;;;;;;;45.67;42.37;;;26.70;56.20;;;;;;5048230;28;20518;-75
2021/07/23 11:26:53;;;;;;;43.00;40.10;;;27.00;55.20;;;;;;5043846;28;20585;-73
2021/07/23 11:29:31;;;;;;;49.87;46.27;;;27.40;54.80;;;;;;5044929;28;20483;-71
2021/07/23 11:32:09;;;;;;;45.03;42.00;;;27.70;54.40;;;;;;5045669;28;20477;-73
2021/07/23 11:34:41;;;;;;;44.70;41.77;;;27.80;54.90;;;;;;5042875;28;20455;-73
2021/07/23 11:37:15;;;;;;;45.47;42.20;;;27.90;55.00;;;;;;5041084;28;20474;-73
2021/07/23 11:39:53;;;;;;;44.23;41.43;;;28.00;54.20;;;;;;5044843;28;20593;-73
2021/07/23 11:42:20;;;;;;;43.37;40.47;;;28.10;53.60;;;;;;5043539;28;20554;-73
2021/07/23 11:44:52;;;;;;;43.37;40.27;;;28.10;53.20;;;;;;5044394;28;20558;-73
2021/07/23 11:47:30;;;;;;;46.47;43.30;;;28.20;54.10;;;;;;5052530;28;20470;-74
2021/07/23 11:49:59;;;;;;;48.77;45.33;;;28.20;53.70;;;;;;5042924;28;20461;-73
2021/07/23 11:52:27;;;;;;;44.70;41.70;;;28.20;52.70;;;;;;5038810;28;20462;-73
2021/07/23 11:55:02;;;;;;;43.37;40.40;;;28.10;53.30;;;;;;5044168;28;20820;-73
2021/07/23 11:57:30;;;;;;;44.80;41.80;;;28.10;53.10;;;;;;5046327;28;21054;-73
2021/07/23 11:59:58;;;;;;;42.43;39.53;;;28.20;52.00;;;;;;5041675;28;21102;-73
2021/07/23 12:02:27;;;;;;;46.40;43.30;;;28.30;51.90;;;;;;5042113;28;20455;-73
2021/07/23 12:05:11;;;;;;;42.37;39.53;;;28.10;52.00;;;;;;5042554;28;20463;-73
2021/07/23 12:07:39;;;;;;;42.00;39.13;;;28.20;51.70;;;;;;5041935;28;20466;-73
2021/07/23 12:10:08;;;;;;;44.20;41.10;;;28.30;51.20;;;;;;5043959;28;20579;-73
2021/07/23 12:12:36;;;;;;;41.57;38.63;;;28.50;52.10;;;;;;5039709;28;21106;-73
2021/07/23 12:15:08;;;;;;;42.63;39.70;;;28.70;50.80;;;;;;5040139;28;20463;-73
2021/07/23 12:17:37;;;;;;;44.60;41.43;;;28.80;50.40;;;;;;5039687;28;20478;-73
2021/07/23 12:20:06;;;;;;;41.43;38.53;;;28.70;50.60;;;;;;5046796;28;20574;-72
2021/07/23 12:22:33;;;;;;;40.57;37.80;;;28.70;50.50;;;;;;5044537;28;20960;-73
2021/07/23 12:25:14;;;;;;;40.90;38.03;;;28.80;50.30;;;;;;5050562;28;20477;-71
2021/07/23 12:27:41;;;;;;;40.53;38.00;;;29.00;50.30;;;;;;5039683;28;20460;-71
2021/07/23 12:30:09;;;;;;;40.97;37.80;;;29.00;50.40;;;;;;5037729;28;21046;-71
2021/07/23 12:32:37;;;;;;;41.80;39.07;;;29.10;49.70;;;;;;5043952;28;20455;-71
2021/07/23 12:35:05;;;;;;;42.33;39.60;;;29.10;49.70;;;;;;5037639;28;20570;-71
2021/07/23 12:37:33;;;;;;;42.23;39.40;;;29.00;49.50;;;;;;5043534;28;20865;-71